Time;durP1;ratioP1;P1;durP2;ratioP2;P2;SDS_P1;SDS_P2;PMS_P1;PMS_P2;Temp;Humidity;BMP_temperature;BMP_pressure;BME280_temperature;BME280_humidity;BME280_pressure;Samples;Min_cycle;Max_cycle;Signal;HPM_P1;HPM_P2
2023/12/15 00:00:29;;;;;;;3.10;1.50;;;;;;;15.88;60.30;102472.97;10453004;28;20267;-54
2023/12/15 00:05:29;;;;;;;2.30;1.40;;;;;;;15.85;61.31;102473.41;10453044;28;20361;-53
2023/12/15 00:10:31;;;;;;;2.75;1.67;;;;;;;15.83;61.65;102486.19;10452467;28;20746;-53
2023/12/15 00:15:31;;;;;;;3.15;1.80;;;;;;;15.81;60.85;102491.78;10451968;28;20021;-53
2023/12/15 00:20:31;;;;;;;5.03;2.28;;;;;;;15.81;61.59;102496.31;10451895;28;20029;-51
2023/12/15 00:25:32;;;;;;;4.13;2.17;;;;;;;15.78;60.88;102501.09;10451651;28;20020;-53
2023/12/15 00:30:32;;;;;;;3.35;1.55;;;;;;;15.78;60.41;102497.59;10451616;28;20298;-50
2023/12/15 00:35:33;;;;;;;2.87;1.73;;;;;;;15.76;60.91;102513.09;10451498;28;20028;-52
2023/12/15 00:40:33;;;;;;;2.80;1.50;;;;;;;15.74;60.75;102515.97;10433490;28;20279;-53
2023/12/15 00:45:33;;;;;;;3.45;2.22;;;;;;;15.74;60.65;102509.81;10450596;28;20083;-53
2023/12/15 00:50:34;;;;;;;2.95;2.20;;;;;;;15.73;60.57;102513.53;10450782;28;20024;-52
2023/12/15 00:55:34;;;;;;;4.75;2.25;;;;;;;15.71;61.38;102512.94;10433025;28;20017;-51
2023/12/15 01:00:35;;;;;;;3.07;2.00;;;;;;;15.70;60.36;102527.38;10450275;28;20043;-49
2023/12/15 01:05:35;;;;;;;3.15;2.00;;;;;;;15.68;60.91;102529.47;10450364;28;20279;-50
2023/12/15 01:10:36;;;;;;;4.57;2.60;;;;;;;15.67;60.45;102531.31;10449822;28;20473;-53
2023/12/15 01:15:36;;;;;;;3.72;2.50;;;;;;;15.66;60.34;102551.09;10450047;28;20287;-52
2023/12/15 01:20:36;;;;;;;3.87;2.40;;;;;;;15.66;60.98;102558.31;10449770;28;20041;-52
2023/12/15 01:25:37;;;;;;;4.07;2.80;;;;;;;15.64;60.42;102547.03;10432234;28;20584;-52
2023/12/15 01:30:37;;;;;;;4.27;2.30;;;;;;;15.63;61.10;102551.56;10449197;28;20569;-52
2023/12/15 01:35:37;;;;;;;4.93;2.73;;;;;;;15.63;61.53;102556.09;10449891;28;20295;-52
2023/12/15 01:40:37;;;;;;;4.63;2.40;;;;;;;15.61;60.91;102568.84;10449439;28;20302;-53
2023/12/15 01:45:38;;;;;;;3.10;2.00;;;;;;;15.60;61.72;102561.88;10449496;28;20345;-51
2023/12/15 01:50:38;;;;;;;4.22;2.67;;;;;;;15.59;61.64;102573.59;10449168;28;20040;-52
2023/12/15 01:55:39;;;;;;;2.83;1.95;;;;;;;15.58;61.66;102562.09;10449052;28;20025;-53
2023/12/15 02:00:39;;;;;;;2.97;2.00;;;;;;;15.57;61.58;102567.66;10456262;28;20500;-50
2023/12/15 02:05:39;;;;;;;5.33;2.60;;;;;;;15.56;61.69;102574.06;10457489;28;20320;-53
2023/12/15 02:10:40;;;;;;;3.27;2.27;;;;;;;15.56;61.42;102579.41;10456558;28;20298;-53
2023/12/15 02:15:40;;;;;;;4.60;2.50;;;;;;;15.54;60.68;102594.88;10455579;28;20290;-52
2023/12/15 02:20:41;;;;;;;5.90;2.85;;;;;;;15.53;60.89;102611.97;10455371;28;20029;-50
2023/12/15 02:25:41;;;;;;;5.47;3.17;;;;;;;15.52;61.59;102608.47;10457100;28;20024;-53
2023/12/15 02:30:41;;;;;;;5.05;2.80;;;;;;;15.51;60.66;102612.19;10438392;28;20060;-52
2023/12/15 02:35:42;;;;;;;3.92;2.92;;;;;;;15.50;60.80;102614.00;10456254;28;20028;-53
2023/12/15 02:40:44;;;;;;;4.22;2.58;;;;;;;15.48;60.74;102621.44;10456083;28;20044;-53
2023/12/15 02:45:44;;;;;;;5.10;3.20;;;;;;;15.48;60.79;102628.66;10455856;28;20075;-53
2023/12/15 02:50:45;;;;;;;4.70;3.10;;;;;;;15.46;61.40;102639.59;10455955;28;20693;-51
2023/12/15 02:55:45;;;;;;;4.72;2.90;;;;;;;15.45;61.45;102654.00;10455401;28;20032;-52
2023/12/15 03:00:48;;;;;;;3.77;2.80;;;;;;;15.44;61.61;102655.03;10455406;28;20372;-52
2023/12/15 03:05:49;;;;;;;3.95;2.97;;;;;;;15.44;61.99;102663.06;10454736;28;20275;-50
2023/12/15 03:10:49;;;;;;;8.60;3.50;;;;;;;15.42;61.66;102651.78;10419787;28;20024;-53
2023/12/15 03:15:49;;;;;;;4.70;3.03;;;;;;;15.41;60.99;102660.03;10454065;28;20616;-53
2023/12/15 03:20:49;;;;;;;4.97;3.40;;;;;;;15.42;61.00;102675.03;10454422;28;20275;-50
2023/12/15 03:25:50;;;;;;;4.73;3.37;;;;;;;15.40;61.28;102674.44;10453874;28;20638;-52
2023/12/15 03:30:50;;;;;;;6.82;4.18;;;;;;;15.40;61.29;102685.94;10426640;28;20314;-52
2023/12/15 03:35:51;;;;;;;6.60;3.20;;;;;;;15.40;61.42;102685.13;10453417;28;20029;-53
2023/12/15 03:40:52;;;;;;;5.82;4.10;;;;;;;15.51;61.03;102697.75;10454142;28;20476;-54
2023/12/15 03:45:52;;;;;;;7.03;3.87;;;;;;;15.82;59.80;102703.91;10453459;28;20021;-54
2023/12/15 03:50:52;;;;;;;6.53;3.50;;;;;;;16.21;58.37;102692.56;10453488;28;20263;-54
2023/12/15 03:55:52;;;;;;;4.60;3.00;;;;;;;16.66;56.96;102700.03;10452718;28;20287;-53
2023/12/15 04:00:53;;;;;;;6.40;3.57;;;;;;;16.98;57.06;102689.78;10452858;28;20713;-54
2023/12/15 04:05:53;;;;;;;8.90;3.83;;;;;;;17.21;55.91;102692.41;10452606;28;20274;-54
2023/12/15 04:10:54;;;;;;;5.68;3.40;;;;;;;17.43;55.80;102716.72;10434940;28;20025;-53
2023/12/15 04:15:54;;;;;;;5.47;3.50;;;;;;;17.57;55.31;102727.16;10452125;28;20029;-54
2023/12/15 04:20:54;;;;;;;4.10;2.63;;;;;;;17.71;55.31;102723.97;10451340;28;20943;-53
2023/12/15 04:25:57;;;;;;;4.18;2.88;;;;;;;17.79;54.54;102725.44;10432402;28;20279;-54
2023/12/15 04:30:58;;;;;;;5.28;3.35;;;;;;;17.87;54.87;102748.38;10439237;28;20051;-54
2023/12/15 04:35:58;;;;;;;4.25;2.97;;;;;;;17.96;53.84;102738.88;10420333;28;20043;-53
2023/12/15 04:40:58;;;;;;;4.20;2.87;;;;;;;18.01;54.01;102742.50;10446939;28;20013;-52
2023/12/15 04:45:59;;;;;;;4.27;3.10;;;;;;;18.06;54.55;102739.06;10438544;28;20290;-54
2023/12/15 04:50:59;;;;;;;4.03;2.65;;;;;;;18.09;54.33;102744.75;10448187;28;20787;-52
2023/12/15 04:56:00;;;;;;;4.83;3.10;;;;;;;18.17;53.53;102748.94;10429571;28;20033;-53
2023/12/15 05:01:00;;;;;;;5.23;2.77;;;;;;;18.25;53.21;102742.34;10429896;28;20718;-52
2023/12/15 05:06:00;;;;;;;5.13;3.17;;;;;;;18.29;53.68;102770.34;10447342;28;20276;-53
2023/12/15 05:11:01;;;;;;;8.90;3.40;;;;;;;18.35;53.34;102775.56;10447069;28;20287;-53
2023/12/15 05:16:01;;;;;;;4.57;2.78;;;;;;;18.44;52.92;102792.06;10446832;28;20288;-53
2023/12/15 05:21:03;;;;;;;4.00;2.65;;;;;;;18.49;52.58;102783.28;10447779;28;20391;-54
2023/12/15 05:26:04;;;;;;;5.15;2.90;;;;;;;18.56;53.45;102791.97;10446659;28;20032;-52
2023/12/15 05:31:04;;;;;;;4.88;3.03;;;;;;;18.60;53.06;102806.56;10437298;28;20037;-54
2023/12/15 05:36:05;;;;;;;3.55;2.55;;;;;;;18.63;52.59;102811.44;10446318;28;20083;-54
2023/12/15 05:41:05;;;;;;;3.63;2.20;;;;;;;18.66;53.13;102802.94;10446617;28;20032;-52
2023/12/15 05:46:06;;;;;;;4.75;2.92;;;;;;;18.65;53.48;102801.31;10446179;28;20033;-52
2023/12/15 05:51:07;;;;;;;5.65;3.03;;;;;;;18.53;53.45;102795.16;10447232;28;20416;-51
2023/12/15 05:56:08;;;;;;;3.60;2.22;;;;;;;18.38;54.01;102803.78;10447302;28;20108;-53
2023/12/15 06:01:08;;;;;;;4.47;3.08;;;;;;;18.40;54.51;102799.00;10431139;28;20017;-54
2023/12/15 06:09:39;;;;;;;14.05;3.92;;;;;;;18.27;55.95;102829.66;10569569;27;20337;-49
2023/12/15 06:14:39;;;;;;;10.40;3.17;;;;;;;18.18;57.07;102833.78;10561688;28;20032;-50
2023/12/15 06:19:40;;;;;;;6.47;2.93;;;;;;;18.21;56.44;102835.97;10527404;28;20845;-50
2023/12/15 06:24:40;;;;;;;9.68;3.25;;;;;;;18.15;58.60;102845.00;10525395;28;20363;-48
2023/12/15 06:29:41;;;;;;;8.20;3.08;;;;;;;17.99;57.53;102849.25;10533331;28;20027;-51
2023/12/15 06:34:42;;;;;;;13.73;3.55;;;;;;;18.00;58.18;102863.53;10525904;28;20032;-48
2023/12/15 06:39:45;;;;;;;10.63;3.25;;;;;;;17.95;58.39;102850.00;10522642;28;20464;-48
2023/12/15 06:44:46;;;;;;;8.55;3.47;;;;;;;17.88;57.10;102868.09;10520923;28;20036;-49
2023/12/15 06:49:47;;;;;;;9.52;3.13;;;;;;;17.82;58.19;102864.50;10523119;28;20020;-51
2023/12/15 06:54:48;;;;;;;12.25;3.60;;;;;;;17.74;59.12;102867.56;10523307;28;20106;-48
2023/12/15 06:59:49;;;;;;;12.82;3.70;;;;;;;17.79;57.75;102878.41;10541718;28;20068;-51
2023/12/15 07:04:49;;;;;;;17.87;3.50;;;;;;;17.75;58.54;102880.72;10564379;28;20020;-50
2023/12/15 07:09:49;;;;;;;17.37;4.97;;;;;;;17.73;57.61;102887.38;10564794;28;20319;-49
2023/12/15 07:14:50;;;;;;;12.63;4.13;;;;;;;17.73;58.00;102880.16;10555300;28;20270;-48
2023/12/15 07:19:50;;;;;;;17.47;6.13;;;;;;;17.83;57.24;102901.84;10499083;28;20698;-49
2023/12/15 07:24:50;;;;;;;11.63;5.18;;;;;;;17.86;56.68;102905.09;10492338;28;20371;-48
2023/12/15 07:29:52;;;;;;;11.00;3.88;;;;;;;17.81;57.31;102911.19;10504193;28;20031;-49
2023/12/15 07:34:52;;;;;;;8.00;4.13;;;;;;;17.81;57.56;102925.41;10495876;28;20372;-52
2023/12/15 07:39:54;;;;;;;10.80;4.63;;;;;;;17.81;56.36;102921.91;10495353;28;20029;-52
2023/12/15 07:44:54;;;;;;;14.88;4.50;;;;;;;17.81;57.57;102935.34;10492143;28;20052;-50
2023/12/15 07:49:55;;;;;;;21.87;5.57;;;;;;;17.71;58.47;102927.06;10495023;28;20056;-56
2023/12/15 07:54:55;;;;;;;8.57;3.83;;;;;;;17.75;57.01;102947.81;10472575;28;20834;-54
2023/12/15 07:59:55;;;;;;;9.87;3.60;;;;;;;17.79;58.13;102954.34;10466083;28;20362;-47
2023/12/15 08:04:56;;;;;;;14.73;4.30;;;;;;;17.80;58.12;102964.03;10467808;28;20306;-49
2023/12/15 08:09:56;;;;;;;11.05;3.60;;;;;;;17.79;57.72;102975.00;10483390;28;20028;-49
2023/12/15 08:14:56;;;;;;;8.90;3.60;;;;;;;17.78;57.52;102998.34;10493767;28;20028;-52
2023/12/15 08:19:57;;;;;;;8.60;3.47;;;;;;;17.78;57.71;103003.72;10494149;28;20607;-50
2023/12/15 08:24:57;;;;;;;8.35;3.65;;;;;;;17.75;57.37;103001.47;10494132;28;20292;-49
2023/12/15 08:29:59;;;;;;;7.85;3.30;;;;;;;17.73;56.52;103008.13;10502085;28;20028;-49
2023/12/15 08:34:59;;;;;;;8.88;4.00;;;;;;;17.74;57.30;103004.41;10490838;28;20021;-51
2023/12/15 08:39:59;;;;;;;6.53;3.30;;;;;;;17.77;56.50;103022.72;10484142;28;20035;-52
2023/12/15 08:45:00;;;;;;;5.33;3.67;;;;;;;17.74;57.15;103036.59;10474631;28;20294;-48
2023/12/15 08:50:00;;;;;;;7.83;3.33;;;;;;;17.75;56.48;103041.72;10487771;28;20624;-49
2023/12/15 08:55:00;;;;;;;6.80;3.67;;;;;;;17.74;57.21;103050.81;10491076;28;20327;-51
2023/12/15 09:00:04;;;;;;;5.55;3.50;;;;;;;17.71;56.04;103045.13;10495697;28;20242;-51
2023/12/15 09:05:05;;;;;;;6.35;3.20;;;;;;;17.73;56.52;103054.56;10470006;28;20088;-49
2023/12/15 09:10:05;;;;;;;4.80;2.63;;;;;;;17.74;56.18;103066.13;10484994;28;20048;-50
2023/12/15 09:15:06;;;;;;;3.83;2.45;;;;;;;17.68;56.90;103062.47;10485599;28;20017;-48
2023/12/15 09:20:07;;;;;;;7.30;3.40;;;;;;;17.67;56.67;103071.56;10472718;28;20024;-51
2023/12/15 09:25:08;;;;;;;7.28;3.05;;;;;;;17.70;57.18;103095.28;10465779;28;20044;-48
2023/12/15 09:30:08;;;;;;;5.20;3.38;;;;;;;17.65;56.56;103105.88;10487086;28;20039;-49
2023/12/15 09:35:09;;;;;;;4.20;2.33;;;;;;;17.74;56.64;103127.81;10468774;28;20027;-49
2023/12/15 09:40:09;;;;;;;5.47;2.87;;;;;;;17.68;56.83;103131.41;10483727;28;20029;-49
2023/12/15 09:45:10;;;;;;;7.57;3.45;;;;;;;17.65;56.59;103147.97;10483684;28;20299;-50
2023/12/15 09:50:11;;;;;;;5.38;3.25;;;;;;;17.69;57.12;103154.53;10462384;28;20013;-53
2023/12/15 09:55:12;;;;;;;8.00;2.70;;;;;;;17.67;56.77;103148.56;10462929;28;20037;-49
2023/12/15 10:00:13;;;;;;;5.45;2.63;;;;;;;17.65;56.52;103145.31;10483891;28;20579;-52
2023/12/15 10:05:13;;;;;;;5.57;2.33;;;;;;;17.63;56.49;103166.16;10490861;28;20076;-52
2023/12/15 10:10:14;;;;;;;8.75;3.50;;;;;;;17.66;57.56;103174.56;10483333;28;20500;-49
2023/12/15 10:15:15;;;;;;;4.90;2.75;;;;;;;17.61;56.40;103187.03;10479996;28;20407;-50
2023/12/15 10:20:15;;;;;;;6.70;2.65;;;;;;;17.68;56.68;103185.91;10483110;28;20040;-47
2023/12/15 10:25:23;;;;;;;3.72;2.20;;;;;;;17.62;57.54;103194.03;10478032;28;20025;-48
2023/12/15 10:30:23;;;;;;;7.00;3.38;;;;;;;17.61;57.22;103221.91;10498626;28;20028;-50
2023/12/15 10:35:23;;;;;;;3.85;2.30;;;;;;;17.54;57.62;103233.56;10487291;28;20361;-50
2023/12/15 10:40:25;;;;;;;6.43;3.05;;;;;;;17.50;57.29;103245.78;10488179;28;20035;-47
2023/12/15 10:45:26;;;;;;;4.47;2.70;;;;;;;17.54;56.23;103232.75;10485182;28;20052;-48
2023/12/15 10:50:27;;;;;;;3.92;2.45;;;;;;;17.58;57.17;103225.88;10486542;28;20048;-49
2023/12/15 10:55:28;;;;;;;6.93;2.97;;;;;;;17.61;55.98;103236.13;10495700;28;20016;-49
2023/12/15 11:00:29;;;;;;;5.30;2.60;;;;;;;17.61;57.14;103240.69;10495667;28;20385;-47
2023/12/15 11:05:32;;;;;;;5.80;2.28;;;;;;;17.61;55.68;103254.91;10495154;28;20154;-49
2023/12/15 11:10:34;;;;;;;3.88;2.60;;;;;;;17.61;57.27;103260.28;10494970;28;20033;-50
2023/12/15 11:15:35;;;;;;;4.90;2.30;;;;;;;17.59;56.58;103251.66;10496380;28;20028;-47
2023/12/15 11:20:39;;;;;;;6.80;2.88;;;;;;;17.61;56.16;103254.91;10495711;28;20024;-49
2023/12/15 11:25:45;;;;;;;4.78;2.22;;;;;;;17.57;56.07;103250.25;10495369;28;20028;-48
2023/12/15 11:30:48;;;;;;;9.00;3.00;;;;;;;17.55;57.51;103266.56;10494672;28;20136;-48
2023/12/15 11:35:52;;;;;;;9.27;2.45;;;;;;;17.57;57.03;103260.97;10482472;28;20475;-47
2023/12/15 11:40:53;;;;;;;5.13;2.47;;;;;;;17.58;56.44;103247.31;10489596;28;20043;-47
2023/12/15 11:45:54;;;;;;;5.60;2.13;;;;;;;17.54;57.05;103243.47;10494153;28;20040;-47
2023/12/15 11:50:56;;;;;;;13.13;3.63;;;;;;;17.50;58.20;103242.28;10493019;28;20073;-49
2023/12/15 11:55:57;;;;;;;6.50;2.50;;;;;;;17.42;57.58;103229.19;10494900;28;20562;-47
2023/12/15 12:00:57;;;;;;;7.28;2.67;;;;;;;17.45;57.68;103224.19;10493986;28;20115;-50
2023/12/15 12:05:58;;;;;;;7.55;2.55;;;;;;;17.48;58.91;103228.28;10482779;28;20114;-47
2023/12/15 12:10:59;;;;;;;10.88;3.03;;;;;;;17.47;58.58;103226.63;10472733;28;20480;-48
2023/12/15 12:16:01;;;;;;;3.35;2.13;;;;;;;17.43;58.31;103226.28;10494197;28;20024;-47
2023/12/15 12:21:06;;;;;;;5.82;2.92;;;;;;;17.40;58.60;103228.56;10492605;28;20024;-51
2023/12/15 12:26:07;;;;;;;9.00;2.97;;;;;;;17.31;59.45;103235.31;10493067;28;20105;-50
2023/12/15 12:31:07;;;;;;;9.05;2.10;;;;;;;17.29;58.33;103240.91;10470725;28;20436;-49
2023/12/15 12:36:08;;;;;;;4.70;2.28;;;;;;;17.28;59.05;103254.50;10486161;28;20040;-48
2023/12/15 12:41:08;;;;;;;6.70;2.85;;;;;;;17.25;59.38;103258.47;10491682;28;20020;-47
2023/12/15 12:46:10;;;;;;;14.30;2.87;;;;;;;17.31;58.17;103243.34;10490805;28;20047;-49
2023/12/15 12:51:11;;;;;;;11.90;3.10;;;;;;;17.29;59.59;103250.81;10482827;28;20298;-50
2023/12/15 12:56:12;;;;;;;11.33;2.90;;;;;;;17.32;57.55;103245.81;10476922;28;20494;-50
2023/12/15 13:01:12;;;;;;;11.70;4.45;;;;;;;17.25;59.07;103248.56;10470277;28;20267;-52
2023/12/15 13:06:12;;;;;;;10.10;3.20;;;;;;;17.31;58.84;103243.34;10480705;28;20415;-54
2023/12/15 13:11:13;;;;;;;17.95;3.85;;;;;;;17.29;59.05;103256.19;10490442;28;20312;-53
2023/12/15 13:16:14;;;;;;;12.57;3.92;;;;;;;17.26;58.59;103268.16;10490194;28;20422;-49
2023/12/15 13:21:15;;;;;;;12.18;2.90;;;;;;;17.29;58.29;103257.00;10473951;28;20024;-49
2023/12/15 13:26:15;;;;;;;13.07;3.30;;;;;;;17.29;58.50;103256.19;10477412;28;20045;-50
2023/12/15 13:31:15;;;;;;;15.52;4.50;;;;;;;17.27;59.17;103256.38;10452400;28;20612;-48
2023/12/15 13:36:19;;;;;;;8.50;3.13;;;;;;;17.29;58.53;103265.03;10454301;28;20021;-48
2023/12/15 13:41:19;;;;;;;14.23;2.97;;;;;;;17.26;59.50;103254.75;10455125;28;20504;-52
2023/12/15 13:46:21;;;;;;;14.88;4.00;;;;;;;17.22;60.24;103261.59;10478978;28;20012;-49
2023/12/15 13:51:21;;;;;;;24.30;4.03;;;;;;;17.24;60.22;103264.88;10490231;28;20557;-54
2023/12/15 13:56:23;;;;;;;12.00;3.78;;;;;;;17.29;59.61;103286.50;10490436;28;20116;-52
2023/12/15 14:01:23;;;;;;;19.27;4.50;;;;;;;17.28;59.28;103284.81;10502670;28;20399;-54
2023/12/15 14:06:24;;;;;;;19.13;4.20;;;;;;;17.24;58.83;103289.00;10505184;28;20045;-52
2023/12/15 14:11:24;;;;;;;16.07;4.00;;;;;;;17.23;58.62;103285.50;10489842;28;20270;-53
2023/12/15 14:16:25;;;;;;;10.13;3.30;;;;;;;17.24;58.85;103297.06;10488624;28;20266;-53
2023/12/15 14:21:25;;;;;;;12.35;3.30;;;;;;;17.22;58.23;103305.31;10485828;28;20028;-54
2023/12/15 14:26:25;;;;;;;16.27;3.23;;;;;;;17.27;58.86;103328.78;10489492;28;20116;-53
2023/12/15 14:31:26;;;;;;;12.40;2.90;;;;;;;17.31;58.08;103337.22;10507073;28;20275;-52
2023/12/15 14:36:27;;;;;;;12.67;2.60;;;;;;;17.31;58.57;103337.22;10497392;28;20709;-51
2023/12/15 14:41:28;;;;;;;8.95;2.75;;;;;;;17.30;58.65;103341.75;10491724;28;20988;-55
2023/12/15 14:46:28;;;;;;;8.85;2.90;;;;;;;17.31;58.31;103335.34;10497533;28;20024;-51
2023/12/15 14:51:29;;;;;;;8.98;2.55;;;;;;;17.31;58.15;103327.31;10495251;28;20052;-52
2023/12/15 14:56:29;;;;;;;9.95;3.25;;;;;;;17.33;58.12;103344.00;10496066;28;20353;-54
2023/12/15 15:01:29;;;;;;;6.47;3.53;;;;;;;17.34;57.73;103347.50;10496681;28;20035;-54
2023/12/15 15:06:30;;;;;;;7.30;2.60;;;;;;;17.30;58.02;103344.44;10496508;28;20040;-52
2023/12/15 15:11:30;;;;;;;9.27;2.70;;;;;;;17.34;57.41;103353.66;10495836;28;20281;-53
2023/12/15 15:16:30;;;;;;;5.73;2.37;;;;;;;17.34;57.78;103339.44;10496666;28;20286;-54
2023/12/15 15:21:31;;;;;;;7.90;2.63;;;;;;;17.32;57.53;103349.56;10495786;28;20320;-53
2023/12/15 15:26:31;;;;;;;9.85;2.92;;;;;;;17.40;57.88;103341.22;10496588;28;20332;-51
2023/12/15 15:31:32;;;;;;;8.65;2.45;;;;;;;17.57;58.46;103344.13;10505443;28;20051;-51
2023/12/15 15:36:33;;;;;;;13.65;3.20;;;;;;;17.67;56.92;103369.41;10494148;28;20032;-52
2023/12/15 15:41:33;;;;;;;21.52;3.28;;;;;;;17.63;58.26;103376.25;10492218;28;20033;-52
2023/12/15 15:46:34;;;;;;;16.70;5.13;;;;;;;17.58;58.02;103388.69;10495431;28;20388;-54
2023/12/15 15:51:34;;;;;;;23.50;4.47;;;;;;;17.49;59.10;103404.25;10493348;28;20282;-53
2023/12/15 15:56:34;;;;;;;22.58;5.15;;;;;;;17.41;59.40;103399.22;10495770;28;20322;-53
2023/12/15 16:01:35;;;;;;;42.90;7.87;;;;;;;17.25;60.40;103406.75;10515736;28;20024;-52
2023/12/15 16:06:35;;;;;;;36.67;7.90;;;;;;;17.33;59.27;103404.84;10479317;28;20282;-53
2023/12/15 16:11:35;;;;;;;30.87;5.13;;;;;;;17.33;59.75;103394.94;10481835;28;20043;-49
2023/12/15 16:16:36;;;;;;;28.42;4.95;;;;;;;17.47;59.73;103391.06;10463504;28;20739;-52
2023/12/15 16:21:36;;;;;;;25.20;5.33;;;;;;;17.36;58.29;103364.16;10480629;28;20024;-53
2023/12/15 16:26:37;;;;;;;29.60;5.82;;;;;;;17.25;59.87;103371.09;10481925;28;20293;-53
2023/12/15 16:31:40;;;;;;;25.23;4.93;;;;;;;17.33;57.04;103378.03;10483267;28;20391;-50
2023/12/15 16:36:40;;;;;;;33.58;9.70;;;;;;;17.39;57.67;103394.03;10473287;28;20333;-50
2023/12/15 16:41:40;;;;;;;20.25;6.43;;;;;;;17.34;58.23;103407.31;10495231;28;20025;-54
2023/12/15 16:46:41;;;;;;;28.88;6.65;;;;;;;17.61;57.63;103415.06;10487388;28;20135;-48
2023/12/15 16:51:41;;;;;;;21.50;5.82;;;;;;;17.76;57.62;103437.03;10479870;28;20034;-50
2023/12/15 16:56:42;;;;;;;23.90;5.50;;;;;;;17.99;59.91;103450.56;10483258;28;20025;-53
2023/12/15 17:01:43;;;;;;;22.67;5.63;;;;;;;18.13;59.54;103447.75;10483553;28;20553;-47
2023/12/15 17:06:44;;;;;;;20.03;5.47;;;;;;;18.15;57.89;103448.34;10476507;28;20033;-52
2023/12/15 17:11:45;;;;;;;25.75;5.35;;;;;;;18.13;58.92;103455.81;10478326;28;20267;-54
2023/12/15 17:16:46;;;;;;;26.83;5.63;;;;;;;17.95;59.07;103432.47;10488318;28;20383;-54
2023/12/15 17:21:46;;;;;;;28.55;6.60;;;;;;;17.85;59.25;103464.38;10478358;28;20271;-56
2023/12/15 17:26:46;;;;;;;12.83;4.20;;;;;;;17.61;60.85;103432.00;10478989;28;20368;-54
2023/12/15 17:31:47;;;;;;;17.55;4.38;;;;;;;17.58;58.20;103434.31;10492010;28;20293;-54
2023/12/15 17:36:48;;;;;;;16.88;5.63;;;;;;;17.59;59.51;103427.91;10474969;28;20024;-54
2023/12/15 17:41:48;;;;;;;22.90;5.63;;;;;;;17.46;60.65;103427.00;10468231;28;20024;-53
2023/12/15 17:46:49;;;;;;;26.60;4.57;;;;;;;17.43;60.52;103415.91;10478553;28;20052;-54
2023/12/15 17:51:49;;;;;;;19.35;4.68;;;;;;;17.37;62.53;103438.22;10478790;28;20328;-53
2023/12/15 17:56:49;;;;;;;25.90;4.23;;;;;;;17.33;61.29;103451.25;10481763;28;20017;-55
2023/12/15 18:01:50;;;;;;;11.80;3.23;;;;;;;17.34;60.42;103455.59;10482972;28;20760;-54
2023/12/15 18:06:50;;;;;;;14.93;3.97;;;;;;;17.29;59.71;103452.75;10477557;28;20441;-54
2023/12/15 18:11:51;;;;;;;17.47;4.10;;;;;;;17.27;60.23;103475.44;10467794;28;20639;-54
2023/12/15 18:16:52;;;;;;;13.00;3.58;;;;;;;17.25;59.60;103463.06;10483462;28;20279;-54
2023/12/15 18:21:52;;;;;;;15.13;4.53;;;;;;;17.40;61.39;103465.41;10467860;28;20028;-52
2023/12/15 18:26:52;;;;;;;17.40;3.85;;;;;;;17.40;60.45;103486.03;10461299;28;20654;-53
2023/12/15 18:31:53;;;;;;;17.87;4.57;;;;;;;17.40;60.34;103484.19;10469277;28;20427;-51
2023/12/15 18:36:53;;;;;;;12.07;4.28;;;;;;;17.35;60.90;103480.53;10482015;28;20271;-52
2023/12/15 18:41:53;;;;;;;11.20;3.30;;;;;;;17.34;60.36;103487.75;10480939;28;20021;-54
2023/12/15 18:46:54;;;;;;;17.10;5.70;;;;;;;17.25;61.69;103481.84;10477246;28;20036;-55
2023/12/15 18:51:54;;;;;;;11.65;4.43;;;;;;;17.20;61.58;103494.28;10464045;28;20291;-53
2023/12/15 18:56:54;;;;;;;14.60;3.90;;;;;;;17.22;61.20;103494.88;10449863;28;20040;-53
2023/12/15 19:01:55;;;;;;;9.97;3.47;;;;;;;17.21;59.97;103501.28;10447972;28;20348;-54
2023/12/15 19:06:55;;;;;;;12.43;3.83;;;;;;;17.21;60.22;103486.00;10451721;28;20302;-53
2023/12/15 19:11:56;;;;;;;10.55;3.90;;;;;;;17.23;59.99;103496.50;10457661;28;20048;-52
2023/12/15 19:16:56;;;;;;;12.93;3.53;;;;;;;17.29;60.75;103495.66;10468262;28;20029;-52
2023/12/15 19:21:56;;;;;;;9.07;3.15;;;;;;;17.32;61.08;103502.44;10479295;28;20618;-54
2023/12/15 19:26:57;;;;;;;15.37;3.40;;;;;;;17.33;60.60;103523.66;10463156;28;20028;-55
2023/12/15 19:31:57;;;;;;;9.05;3.63;;;;;;;17.34;59.73;103541.41;10471206;28;20289;-55
2023/12/15 19:36:59;;;;;;;9.20;3.33;;;;;;;17.37;61.08;103540.13;10463815;28;20396;-55
2023/12/15 19:42:00;;;;;;;9.02;4.00;;;;;;;17.32;61.37;103562.25;10464829;28;20399;-54
2023/12/15 19:47:00;;;;;;;7.17;2.63;;;;;;;17.37;60.00;103573.16;10488707;28;20568;-56
2023/12/15 19:52:01;;;;;;;7.88;3.13;;;;;;;17.39;60.04;103581.78;10485727;28;20277;-54
2023/12/15 19:57:01;;;;;;;12.80;3.90;;;;;;;17.35;60.15;103596.69;10483013;28;20041;-55
2023/12/15 20:02:06;;;;;;;8.83;2.97;;;;;;;17.36;59.32;103589.44;10471586;28;20031;-54
2023/12/15 20:07:06;;;;;;;8.18;2.92;;;;;;;17.33;59.26;103587.22;10488922;28;20963;-55
2023/12/15 20:12:06;;;;;;;7.05;2.53;;;;;;;17.30;60.00;103571.56;10500367;28;20024;-53
2023/12/15 20:17:07;;;;;;;5.65;2.25;;;;;;;17.25;59.97;103575.69;10512099;28;20338;-54
2023/12/15 20:22:07;;;;;;;6.20;2.70;;;;;;;17.21;59.36;103568.31;10506220;28;20290;-54
2023/12/15 20:27:10;;;;;;;6.07;2.90;;;;;;;17.14;59.57;103579.06;10501893;28;20686;-55
2023/12/15 20:32:10;;;;;;;6.80;2.40;;;;;;;17.12;60.13;103591.06;10510424;28;20277;-54
2023/12/15 20:37:11;;;;;;;9.02;2.10;;;;;;;17.08;60.71;103579.13;10507081;28;20055;-55
2023/12/15 20:42:13;;;;;;;5.37;2.87;;;;;;;17.04;60.13;103583.25;10503160;28;20521;-53
2023/12/15 20:47:14;;;;;;;5.45;2.05;;;;;;;17.02;59.01;103593.38;10506988;28;20032;-55
2023/12/15 20:52:16;;;;;;;6.97;2.50;;;;;;;17.00;60.23;103590.91;10515032;28;20032;-54
2023/12/15 20:57:16;;;;;;;5.00;1.75;;;;;;;16.95;59.44;103588.88;10513336;28;20297;-53
2023/12/15 21:02:17;;;;;;;5.83;2.40;;;;;;;16.93;59.05;103593.66;10529802;28;20028;-54
2023/12/15 21:07:17;;;;;;;6.27;2.13;;;;;;;16.90;59.95;103588.69;10501654;28;20306;-54
2023/12/15 21:12:17;;;;;;;6.00;1.90;;;;;;;16.89;59.51;103595.09;10492895;28;20286;-55
2023/12/15 21:17:18;;;;;;;6.15;2.65;;;;;;;16.86;60.78;103586.66;10492607;28;20267;-53
2023/12/15 21:22:18;;;;;;;6.82;2.38;;;;;;;16.82;59.33;103583.59;10492744;28;20075;-53
2023/12/15 21:27:19;;;;;;;7.83;3.43;;;;;;;16.80;59.26;103598.22;10492059;28;20029;-53
2023/12/15 21:32:19;;;;;;;4.23;1.90;;;;;;;16.77;59.62;103594.13;10502119;28;20286;-52
2023/12/15 21:37:20;;;;;;;8.73;3.03;;;;;;;16.74;59.82;103597.22;10491265;28;20258;-55
2023/12/15 21:42:21;;;;;;;7.35;2.35;;;;;;;16.72;60.20;103596.63;10489225;28;20357;-54
2023/12/15 21:47:22;;;;;;;3.55;2.00;;;;;;;16.69;59.81;103594.34;10491516;28;20083;-54
2023/12/15 21:52:22;;;;;;;5.07;2.28;;;;;;;16.66;59.30;103592.06;10491958;28;20021;-54
2023/12/15 21:57:24;;;;;;;7.28;2.22;;;;;;;16.65;60.30;103593.94;10491410;28;20035;-54
2023/12/15 22:02:24;;;;;;;6.95;2.40;;;;;;;16.63;59.09;103604.03;10491769;28;20251;-54
2023/12/15 22:07:25;;;;;;;5.50;2.20;;;;;;;16.58;60.67;103582.44;10498688;28;20566;-54
2023/12/15 22:12:25;;;;;;;6.30;1.90;;;;;;;16.58;60.68;103590.47;10491625;28;20026;-54
2023/12/15 22:17:26;;;;;;;5.72;1.83;;;;;;;16.54;59.33;103612.50;10490790;28;20266;-54
2023/12/15 22:22:26;;;;;;;3.40;1.63;;;;;;;16.53;59.52;103616.22;10491390;28;20054;-53
2023/12/15 22:27:26;;;;;;;3.17;1.70;;;;;;;16.52;60.81;103627.97;10490799;28;20340;-54
2023/12/15 22:32:27;;;;;;;6.90;2.22;;;;;;;16.49;60.74;103618.50;10500774;28;20652;-54
2023/12/15 22:37:28;;;;;;;6.47;2.10;;;;;;;16.47;59.11;103601.84;10490708;28;20024;-55
2023/12/15 22:42:28;;;;;;;4.43;1.65;;;;;;;16.45;59.74;103613.75;10487950;28;20036;-54
2023/12/15 22:47:29;;;;;;;4.35;2.55;;;;;;;16.43;60.68;103610.47;10490644;28;20024;-54
2023/12/15 22:52:30;;;;;;;6.95;2.08;;;;;;;16.42;60.12;103615.00;10498619;28;20034;-54
2023/12/15 22:57:30;;;;;;;3.92;1.63;;;;;;;16.39;59.54;103628.84;10498071;28;20379;-54